Time;durP1;ratioP1;P1;durP2;ratioP2;P2;SDS_P1;SDS_P2;PMS_P1;PMS_P2;Temp;Humidity;BMP_temperature;BMP_pressure;BME280_temperature;BME280_humidity;BME280_pressure;Samples;Min_cycle;Max_cycle;Signal;HPM_P1;HPM_P2
2022/02/25 00:02:14;;;;;;;;;;;4.40;99.90;;;;;;5094039;28;20007;-59
2022/02/25 00:04:39;;;;;;;;;;;4.40;99.90;;;;;;5093759;28;19916;-59
2022/02/25 00:07:05;;;;;;;;;;;4.40;99.90;;;;;;5093583;28;20033;-51
2022/02/25 00:09:31;;;;;;;;;;;4.40;99.90;;;;;;5092521;28;19920;-52
2022/02/25 00:11:57;;;;;;;;;;;4.40;99.90;;;;;;5092377;28;20014;-52
2022/02/25 00:14:22;;;;;;;;;;;4.40;99.90;;;;;;5092544;28;19923;-52
2022/02/25 00:16:49;;;;;;;;;;;4.40;99.90;;;;;;5092620;28;20405;-52
2022/02/25 00:19:14;;;;;;;;;;;4.50;99.90;;;;;;5091124;28;20301;-51
2022/02/25 00:21:40;;;;;;;;;;;4.50;99.90;;;;;;5092599;28;19916;-51
2022/02/25 00:24:06;;;;;;;;;;;4.50;99.90;;;;;;5092402;28;19981;-47
2022/02/25 00:26:31;;;;;;;;;;;4.70;99.90;;;;;;5091935;28;19995;-50
2022/02/25 00:28:57;;;;;;;;;;;4.60;99.90;;;;;;5092046;28;20002;-51
2022/02/25 00:31:22;;;;;;;;;;;4.60;99.90;;;;;;5092639;28;20294;-48
2022/02/25 00:33:48;;;;;;;;;;;4.60;99.90;;;;;;5091997;28;19923;-47
2022/02/25 00:36:13;;;;;;;;;;;4.60;99.90;;;;;;5091829;28;19920;-49
2022/02/25 00:38:39;;;;;;;;;;;4.70;99.90;;;;;;5092498;28;19923;-52
2022/02/25 00:41:04;;;;;;;;;;;4.60;99.90;;;;;;5092337;28;19923;-51
2022/02/25 00:43:30;;;;;;;;;;;4.60;99.90;;;;;;5092162;28;19916;-53
2022/02/25 00:45:56;;;;;;;;;;;4.70;99.90;;;;;;5092403;28;19920;-48
2022/02/25 00:48:21;;;;;;;;;;;4.70;99.90;;;;;;5092186;28;19967;-48
2022/02/25 00:50:47;;;;;;;;;;;4.80;99.90;;;;;;5093158;28;19982;-47
2022/02/25 00:53:12;;;;;;;;;;;4.80;99.90;;;;;;5094879;28;19916;-52
2022/02/25 00:55:38;;;;;;;;;;;4.80;99.90;;;;;;5096045;28;19922;-51
2022/02/25 00:58:03;;;;;;;;;;;4.80;99.90;;;;;;5095969;28;19963;-52
2022/02/25 01:00:29;;;;;;;;;;;4.80;99.90;;;;;;5095114;28;20315;-49
2022/02/25 01:02:55;;;;;;;;;;;4.80;99.90;;;;;;5095651;28;20006;-59
2022/02/25 01:05:21;;;;;;;;;;;4.90;99.90;;;;;;5097380;28;19955;-60
2022/02/25 01:07:47;;;;;;;;;;;4.90;99.90;;;;;;5097479;28;19935;-59
2022/02/25 01:10:14;;;;;;;;;;;5.10;99.90;;;;;;5097410;28;19916;-59
2022/02/25 01:12:39;;;;;;;;;;;5.00;99.90;;;;;;5096946;28;19942;-59
2022/02/25 01:15:05;;;;;;;;;;;4.90;99.90;;;;;;5096837;28;19916;-60
2022/02/25 01:17:31;;;;;;;;;;;5.00;99.90;;;;;;5096938;28;20293;-60
2022/02/25 01:19:57;;;;;;;;;;;5.00;99.90;;;;;;5096898;28;19931;-59
2022/02/25 01:22:24;;;;;;;;;;;5.00;99.90;;;;;;5096531;28;19923;-59
2022/02/25 01:24:49;;;;;;;;;;;5.00;99.90;;;;;;5096622;28;19969;-59
2022/02/25 01:27:15;;;;;;;;;;;5.00;99.90;;;;;;5095088;28;20011;-59
2022/02/25 01:29:40;;;;;;;;;;;5.00;99.90;;;;;;5096768;28;20028;-60
2022/02/25 01:32:06;;;;;;;;;;;5.00;99.90;;;;;;5096444;28;19919;-59
2022/02/25 01:34:32;;;;;;;;;;;5.00;99.90;;;;;;5096194;28;19927;-58
2022/02/25 01:36:58;;;;;;;;;;;5.00;99.90;;;;;;5096509;28;19916;-59
2022/02/25 01:39:23;;;;;;;;;;;5.00;99.90;;;;;;5096446;28;19977;-59
2022/02/25 01:41:49;;;;;;;;;;;5.00;99.90;;;;;;5096353;28;19920;-59
2022/02/25 01:44:17;;;;;;;;;;;5.00;99.90;;;;;;5096299;28;20374;-59
2022/02/25 01:46:50;;;;;;;;;;;5.00;99.90;;;;;;5096448;28;19966;-59
2022/02/25 01:49:16;;;;;;;;;;;5.00;99.90;;;;;;5095941;28;20008;-59
2022/02/25 01:51:42;;;;;;;;;;;5.00;99.90;;;;;;5095833;28;20348;-59
2022/02/25 01:54:08;;;;;;;;;;;5.00;99.90;;;;;;5095863;28;19920;-59
2022/02/25 01:56:34;;;;;;;;;;;5.10;99.90;;;;;;5095688;28;19922;-59
2022/02/25 01:59:00;;;;;;;;;;;5.10;99.90;;;;;;5096144;28;19990;-59
2022/02/25 02:01:26;;;;;;;;;;;5.00;99.90;;;;;;5095830;28;20378;-60
2022/02/25 02:03:54;;;;;;;;;;;5.10;99.90;;;;;;5095994;28;19969;-59
2022/02/25 02:06:21;;;;;;;;;;;5.00;99.90;;;;;;5095885;28;19916;-59
2022/02/25 02:08:47;;;;;;;;;;;5.00;99.90;;;;;;5093998;28;19924;-59
2022/02/25 02:11:27;;;;;;;;;;;5.00;99.90;;;;;;5096195;28;19916;-60
2022/02/25 02:13:52;;;;;;;;;;;5.00;99.90;;;;;;5096161;28;19923;-59
2022/02/25 02:16:18;;;;;;;;;;;4.90;99.90;;;;;;5095877;28;19916;-59
2022/02/25 02:18:43;;;;;;;;;;;4.90;99.90;;;;;;5095897;28;20376;-60
2022/02/25 02:21:09;;;;;;;;;;;4.90;99.90;;;;;;5095687;28;19916;-60
2022/02/25 02:23:35;;;;;;;;;;;4.90;99.90;;;;;;5095271;28;20278;-59
2022/02/25 02:26:00;;;;;;;;;;;4.80;99.90;;;;;;5095689;28;19916;-59
2022/02/25 02:28:27;;;;;;;;;;;4.70;99.90;;;;;;5095558;28;19930;-59
2022/02/25 02:30:53;;;;;;;;;;;4.60;99.90;;;;;;5095247;28;19977;-60
2022/02/25 02:33:19;;;;;;;;;;;4.50;99.90;;;;;;5095157;28;19916;-60
2022/02/25 02:35:44;;;;;;;;;;;4.40;99.90;;;;;;5095071;28;19927;-59
2022/02/25 02:38:10;;;;;;;;;;;4.40;99.90;;;;;;5094941;28;19916;-59
2022/02/25 02:40:36;;;;;;;;;;;4.30;99.90;;;;;;5094907;28;19968;-59
2022/02/25 02:43:02;;;;;;;;;;;4.20;99.90;;;;;;5095160;28;19960;-59
2022/02/25 02:45:28;;;;;;;;;;;4.20;99.90;;;;;;5095011;28;19916;-59
2022/02/25 02:47:53;;;;;;;;;;;4.10;99.90;;;;;;5095252;28;20478;-60
2022/02/25 02:50:19;;;;;;;;;;;4.10;99.90;;;;;;5095116;28;20019;-59
2022/02/25 02:52:44;;;;;;;;;;;4.00;99.90;;;;;;5094934;28;19966;-59
2022/02/25 02:55:10;;;;;;;;;;;4.00;99.90;;;;;;5094833;28;19916;-60
2022/02/25 02:57:36;;;;;;;;;;;4.00;99.90;;;;;;5094645;28;19965;-59
2022/02/25 03:00:03;;;;;;;;;;;3.90;99.90;;;;;;5094833;28;20382;-59
2022/02/25 03:02:29;;;;;;;;;;;3.90;99.90;;;;;;5094828;28;19916;-59
2022/02/25 03:04:54;;;;;;;;;;;4.00;99.90;;;;;;5094654;28;20344;-59
2022/02/25 03:07:20;;;;;;;;;;;4.00;99.90;;;;;;5094458;28;19959;-60
2022/02/25 03:09:45;;;;;;;;;;;3.90;99.90;;;;;;5094447;28;20370;-60
2022/02/25 03:12:11;;;;;;;;;;;3.90;99.90;;;;;;5094355;28;19915;-59
2022/02/25 03:14:36;;;;;;;;;;;3.90;99.90;;;;;;5094026;28;19920;-60
2022/02/25 03:17:02;;;;;;;;;;;3.90;99.90;;;;;;5094420;28;19947;-59
2022/02/25 03:19:28;;;;;;;;;;;3.80;99.90;;;;;;5094460;28;19939;-59
2022/02/25 03:21:53;;;;;;;;;;;3.80;99.90;;;;;;5094450;28;20357;-59
2022/02/25 03:24:19;;;;;;;;;;;3.70;99.90;;;;;;5094909;28;19970;-59
2022/02/25 03:26:45;;;;;;;;;;;3.80;99.90;;;;;;5094427;28;19923;-60
2022/02/25 03:29:10;;;;;;;;;;;3.70;99.90;;;;;;5094642;28;20709;-59
2022/02/25 03:31:36;;;;;;;;;;;3.80;99.90;;;;;;5094040;28;20021;-59
2022/02/25 03:34:01;;;;;;;;;;;3.80;99.90;;;;;;5094596;28;20385;-59
2022/02/25 03:36:27;;;;;;;;;;;3.80;99.90;;;;;;5094165;28;19920;-59
2022/02/25 03:38:52;;;;;;;;;;;3.80;99.90;;;;;;5094349;28;19994;-59
2022/02/25 03:41:18;;;;;;;;;;;3.80;99.90;;;;;;5094123;28;20376;-60
2022/02/25 03:43:44;;;;;;;;;;;3.80;99.90;;;;;;5094172;28;19916;-59
2022/02/25 03:46:10;;;;;;;;;;;3.90;99.90;;;;;;5094131;28;19916;-59
2022/02/25 03:48:36;;;;;;;;;;;3.80;99.90;;;;;;5094245;28;19968;-60
2022/02/25 03:51:01;;;;;;;;;;;3.80;99.90;;;;;;5093796;28;19959;-59
2022/02/25 03:53:28;;;;;;;;;;;3.80;99.90;;;;;;5093987;28;19938;-60
2022/02/25 03:55:53;;;;;;;;;;;3.80;99.90;;;;;;5092744;28;19916;-59
2022/02/25 03:58:19;;;;;;;;;;;3.80;99.90;;;;;;5093885;28;19923;-59
2022/02/25 04:00:44;;;;;;;;;;;3.90;99.90;;;;;;5093733;28;19916;-59
2022/02/25 04:03:10;;;;;;;;;;;3.90;99.90;;;;;;5093863;28;19968;-59
2022/02/25 04:05:36;;;;;;;;;;;3.90;99.90;;;;;;5094154;28;19932;-59
2022/02/25 04:08:01;;;;;;;;;;;3.90;99.90;;;;;;5093899;28;20350;-60
2022/02/25 04:10:27;;;;;;;;;;;3.90;99.90;;;;;;5093895;28;19916;-60
2022/02/25 04:12:52;;;;;;;;;;;3.90;99.90;;;;;;5094118;28;19922;-59
2022/02/25 04:15:19;;;;;;;;;;;3.90;99.90;;;;;;5093859;28;19922;-59
2022/02/25 04:17:45;;;;;;;;;;;3.80;99.90;;;;;;5093619;28;20373;-59
2022/02/25 04:20:11;;;;;;;;;;;3.80;99.90;;;;;;5093718;28;19916;-59
2022/02/25 04:22:36;;;;;;;;;;;3.70;99.90;;;;;;5093497;28;20382;-59
2022/02/25 04:25:02;;;;;;;;;;;3.90;99.90;;;;;;5094213;28;19923;-60
2022/02/25 04:27:28;;;;;;;;;;;3.80;99.90;;;;;;5097459;28;20003;-59
2022/02/25 04:29:54;;;;;;;;;;;3.80;99.90;;;;;;5097870;28;20418;-59
2022/02/25 04:32:20;;;;;;;;;;;3.90;99.90;;;;;;5097737;28;19969;-60
2022/02/25 04:34:45;;;;;;;;;;;3.90;99.90;;;;;;5098024;28;19920;-59
2022/02/25 04:37:11;;;;;;;;;;;3.90;99.90;;;;;;5097787;28;20411;-59
2022/02/25 04:39:37;;;;;;;;;;;4.00;99.90;;;;;;5098075;28;19923;-60
2022/02/25 04:42:03;;;;;;;;;;;4.00;99.90;;;;;;5097696;28;20413;-59
2022/02/25 04:44:28;;;;;;;;;;;4.00;99.90;;;;;;5097561;28;20354;-59
2022/02/25 04:46:54;;;;;;;;;;;4.10;99.90;;;;;;5097797;28;20384;-59
2022/02/25 04:49:19;;;;;;;;;;;4.20;99.90;;;;;;5097764;28;19973;-59
2022/02/25 04:51:45;;;;;;;;;;;4.20;99.90;;;;;;5097750;28;19991;-59
2022/02/25 04:54:11;;;;;;;;;;;4.20;99.90;;;;;;5097455;28;19916;-59
2022/02/25 04:56:36;;;;;;;;;;;4.20;99.90;;;;;;5097584;28;19919;-59
2022/02/25 04:59:02;;;;;;;;;;;4.20;99.90;;;;;;5097351;28;19939;-59
2022/02/25 05:01:28;;;;;;;;;;;4.20;99.90;;;;;;5097329;28;20009;-59
2022/02/25 05:03:53;;;;;;;;;;;4.20;99.90;;;;;;5096933;28;20004;-59
2022/02/25 05:06:20;;;;;;;;;;;4.30;99.90;;;;;;5097131;28;19916;-59
2022/02/25 05:08:45;;;;;;;;;;;4.40;99.90;;;;;;5097102;28;19943;-60
2022/02/25 05:11:11;;;;;;;;;;;4.50;99.90;;;;;;5096974;28;20349;-59
2022/02/25 05:13:37;;;;;;;;;;;4.40;99.90;;;;;;5095533;28;19916;-59
2022/02/25 05:21:30;;;;;;;;;;;4.40;99.90;;;;;;5096909;28;19916;-60
2022/02/25 05:23:56;;;;;;;;;;;4.40;99.90;;;;;;5096991;28;19920;-59
2022/02/25 05:26:22;;;;;;;;;;;4.30;99.90;;;;;;5096850;28;19916;-59
2022/02/25 05:28:48;;;;;;;;;;;4.30;99.90;;;;;;5097120;28;20304;-59
2022/02/25 05:31:15;;;;;;;;;;;4.30;99.90;;;;;;5096933;28;19923;-59
2022/02/25 05:33:40;;;;;;;;;;;4.30;99.90;;;;;;5096935;28;19923;-59
2022/02/25 05:36:06;;;;;;;;;;;4.30;99.90;;;;;;5095308;28;20010;-59
2022/02/25 05:38:32;;;;;;;;;;;4.30;99.90;;;;;;5095029;28;19967;-59
2022/02/25 05:40:57;;;;;;;;;;;4.30;99.90;;;;;;5095145;28;20420;-59
2022/02/25 05:43:23;;;;;;;;;;;4.30;99.90;;;;;;5094919;28;19916;-60
2022/02/25 05:45:49;;;;;;;;;;;4.40;99.90;;;;;;5094064;28;19923;-59
2022/02/25 05:48:14;;;;;;;;;;;4.40;99.90;;;;;;5094936;28;19920;-59
2022/02/25 05:50:40;;;;;;;;;;;4.40;99.90;;;;;;5094097;28;19916;-59
2022/02/25 05:53:05;;;;;;;;;;;4.50;99.90;;;;;;5095198;28;20535;-59
2022/02/25 05:55:31;;;;;;;;;;;4.50;99.90;;;;;;5093863;28;19920;-59
2022/02/25 05:57:57;;;;;;;;;;;4.50;99.90;;;;;;5093979;28;19926;-59
2022/02/25 06:00:23;;;;;;;;;;;4.40;99.90;;;;;;5094988;28;20407;-59
2022/02/25 06:02:49;;;;;;;;;;;4.40;99.90;;;;;;5095220;28;19923;-59
2022/02/25 06:05:15;;;;;;;;;;;4.30;99.90;;;;;;5095005;28;20007;-59
2022/02/25 06:07:41;;;;;;;;;;;4.30;99.90;;;;;;5095181;28;19916;-59
2022/02/25 06:10:06;;;;;;;;;;;4.30;99.90;;;;;;5094949;28;20290;-59
2022/02/25 06:12:32;;;;;;;;;;;4.10;99.90;;;;;;5095028;28;20010;-59
2022/02/25 06:14:57;;;;;;;;;;;4.00;99.90;;;;;;5094941;28;19922;-60
2022/02/25 06:17:23;;;;;;;;;;;4.00;99.90;;;;;;5094873;28;19916;-60
2022/02/25 06:19:48;;;;;;;;;;;4.00;99.90;;;;;;5094680;28;20029;-60
2022/02/25 06:22:14;;;;;;;;;;;4.00;99.90;;;;;;5094725;28;19923;-59
2022/02/25 06:24:40;;;;;;;;;;;4.00;99.90;;;;;;5094860;28;19970;-60
2022/02/25 06:27:06;;;;;;;;;;;4.00;99.90;;;;;;5093290;28;19920;-60
2022/02/25 06:29:31;;;;;;;;;;;4.00;99.90;;;;;;5094595;28;19979;-59
2022/02/25 06:31:57;;;;;;;;;;;4.00;99.90;;;;;;5094863;28;19955;-60
2022/02/25 06:34:22;;;;;;;;;;;4.00;99.90;;;;;;5094754;28;20327;-60
2022/02/25 06:36:48;;;;;;;;;;;4.00;99.90;;;;;;5052498;28;1226551;-60
2022/02/25 06:39:13;;;;;;;;;;;4.00;99.90;;;;;;5095991;28;19916;-60
2022/02/25 06:41:39;;;;;;;;;;;4.10;99.90;;;;;;5095740;28;19966;-60
2022/02/25 06:44:05;;;;;;;;;;;4.00;99.90;;;;;;5095811;28;20027;-60
2022/02/25 06:46:31;;;;;;;;;;;3.90;99.90;;;;;;5095498;28;19916;-60
2022/02/25 06:48:56;;;;;;;;;;;4.00;99.90;;;;;;5094600;28;20277;-60
2022/02/25 06:51:22;;;;;;;;;;;3.90;99.90;;;;;;5095370;28;19916;-60
2022/02/25 06:53:47;;;;;;;;;;;3.90;99.90;;;;;;5094929;28;20281;-60
2022/02/25 06:56:13;;;;;;;;;;;3.90;99.90;;;;;;5094926;28;19916;-60
2022/02/25 06:58:38;;;;;;;;;;;3.90;99.90;;;;;;5094936;28;20423;-60
2022/02/25 07:01:05;;;;;;;;;;;4.00;99.90;;;;;;5094977;28;19915;-60
2022/02/25 07:03:31;;;;;;;;;;;4.00;99.90;;;;;;5095228;28;19916;-60
2022/02/25 07:05:56;;;;;;;;;;;4.00;99.90;;;;;;5093175;28;19920;-60
2022/02/25 07:08:22;;;;;;;;;;;4.00;99.90;;;;;;5094906;28;19920;-60
2022/02/25 07:10:47;;;;;;;;;;;4.10;99.90;;;;;;5094601;28;19970;-60
2022/02/25 07:13:13;;;;;;;;;;;4.10;99.90;;;;;;5094722;28;19923;-60
2022/02/25 07:15:40;;;;;;;;;;;4.10;99.90;;;;;;5093635;28;19925;-60
2022/02/25 07:18:06;;;;;;;;;;;4.10;99.90;;;;;;5093378;28;20267;-60
2022/02/25 07:20:31;;;;;;;;;;;4.10;99.90;;;;;;5094487;28;19931;-60
2022/02/25 07:22:57;;;;;;;;;;;4.10;99.90;;;;;;5094556;28;19916;-60
2022/02/25 07:25:22;;;;;;;;;;;4.20;99.90;;;;;;5094431;28;20057;-60
2022/02/25 07:27:48;;;;;;;;;;;4.20;99.90;;;;;;5094334;28;19920;-60
2022/02/25 07:30:14;;;;;;;;;;;4.10;99.90;;;;;;5094489;28;19981;-60
2022/02/25 07:32:41;;;;;;;;;;;4.20;99.90;;;;;;5094393;28;19923;-60
2022/02/25 07:35:08;;;;;;;;;;;4.20;99.90;;;;;;5094330;28;20297;-60
2022/02/25 07:37:34;;;;;;;;;;;4.20;99.90;;;;;;5094254;28;19916;-60
2022/02/25 07:39:59;;;;;;;;;;;4.20;99.90;;;;;;5094115;28;19922;-60
2022/02/25 07:42:25;;;;;;;;;;;4.30;99.90;;;;;;5094007;28;19951;-60
2022/02/25 07:44:50;;;;;;;;;;;4.20;99.90;;;;;;5094008;28;19915;-60
2022/02/25 07:47:19;;;;;;;;;;;4.30;99.90;;;;;;5093985;28;19923;-61
2022/02/25 07:49:46;;;;;;;;;;;4.40;99.90;;;;;;5094044;28;19920;-60
2022/02/25 07:52:12;;;;;;;;;;;4.50;99.90;;;;;;5093912;28;19959;-61
2022/02/25 07:54:38;;;;;;;;;;;4.80;99.90;;;;;;5093814;28;20012;-60
2022/02/25 07:57:03;;;;;;;;;;;5.00;99.90;;;;;;5094164;28;19971;-60
2022/02/25 07:59:29;;;;;;;;;;;5.30;99.90;;;;;;5093650;28;19995;-61
2022/02/25 08:01:54;;;;;;;;;;;5.50;99.90;;;;;;5093870;28;19923;-60
2022/02/25 08:04:20;;;;;;;;;;;5.70;99.90;;;;;;5093686;28;20263;-61
2022/02/25 08:06:46;;;;;;;;;;;5.80;99.90;;;;;;5093729;28;19972;-60
2022/02/25 08:09:12;;;;;;;;;;;6.20;99.90;;;;;;5092249;28;19932;-61
2022/02/25 08:11:37;;;;;;;;;;;6.30;99.90;;;;;;5093418;28;20045;-61
2022/02/25 08:14:03;;;;;;;;;;;6.60;99.90;;;;;;5093622;28;19915;-60
2022/02/25 08:16:29;;;;;;;;;;;6.90;99.90;;;;;;5093910;28;19941;-61
2022/02/25 08:18:55;;;;;;;;;;;7.20;99.90;;;;;;5093717;28;20301;-61
2022/02/25 08:21:20;;;;;;;;;;;7.30;99.90;;;;;;5093081;28;19923;-61
2022/02/25 08:23:46;;;;;;;;;;;7.60;99.90;;;;;;5091879;28;20434;-61
2022/02/25 08:26:11;;;;;;;;;;;7.80;99.90;;;;;;5093349;28;19923;-60
2022/02/25 08:28:37;;;;;;;;;;;7.90;99.90;;;;;;5093229;28;19965;-61
2022/02/25 08:31:03;;;;;;;;;;;7.70;99.90;;;;;;5093764;28;19923;-61
2022/02/25 08:33:28;;;;;;;;;;;7.50;99.90;;;;;;5093759;28;20413;-60
2022/02/25 08:35:54;;;;;;;;;;;7.20;99.90;;;;;;5093048;28;19920;-60
2022/02/25 08:38:20;;;;;;;;;;;7.10;99.90;;;;;;5093488;28;19916;-61
2022/02/25 08:40:45;;;;;;;;;;;6.90;99.90;;;;;;5093727;28;19916;-60
2022/02/25 08:43:12;;;;;;;;;;;6.70;99.90;;;;;;5093533;28;20384;-60
2022/02/25 08:45:41;;;;;;;;;;;6.60;99.90;;;;;;5093463;28;19916;-60
2022/02/25 08:48:06;;;;;;;;;;;6.50;99.90;;;;;;5093113;28;19923;-60
2022/02/25 08:50:32;;;;;;;;;;;6.50;99.90;;;;;;5093795;28;19922;-60
2022/02/25 08:52:58;;;;;;;;;;;6.40;99.90;;;;;;5093344;28;20024;-60
2022/02/25 08:55:24;;;;;;;;;;;6.40;99.90;;;;;;5093376;28;20377;-60
2022/02/25 08:57:50;;;;;;;;;;;6.30;99.90;;;;;;5091826;28;19927;-61
2022/02/25 09:00:22;;;;;;;;;;;6.10;99.90;;;;;;5093591;28;19920;-60
2022/02/25 09:02:48;;;;;;;;;;;6.10;99.90;;;;;;5093276;28;20003;-61
2022/02/25 09:05:14;;;;;;;;;;;6.20;99.90;;;;;;5093519;28;20010;-60
2022/02/25 09:07:40;;;;;;;;;;;6.20;99.90;;;;;;5092804;28;19958;-60
2022/02/25 09:10:06;;;;;;;;;;;6.20;99.90;;;;;;5091759;28;19920;-61
2022/02/25 09:12:32;;;;;;;;;;;6.20;99.90;;;;;;5095371;28;19920;-60
2022/02/25 09:14:57;;;;;;;;;;;6.30;99.90;;;;;;5096870;28;19923;-60
2022/02/25 09:17:25;;;;;;;;;;;6.40;99.90;;;;;;5095396;28;20002;-61
2022/02/25 09:19:51;;;;;;;;;;;6.50;99.90;;;;;;5095463;28;19923;-60
2022/02/25 09:22:16;;;;;;;;;;;6.70;99.90;;;;;;5096362;28;19920;-61
2022/02/25 09:24:42;;;;;;;;;;;6.80;99.90;;;;;;5096770;28;19916;-61
2022/02/25 09:27:08;;;;;;;;;;;7.10;99.90;;;;;;5096469;28;19916;-60
2022/02/25 09:29:33;;;;;;;;;;;7.10;99.90;;;;;;5096589;28;19927;-61
2022/02/25 09:31:59;;;;;;;;;;;7.40;99.90;;;;;;5096794;28;19967;-60
2022/02/25 09:34:25;;;;;;;;;;;7.50;99.90;;;;;;5096447;28;19916;-60
2022/02/25 09:36:51;;;;;;;;;;;7.70;99.90;;;;;;5094743;28;19924;-60
2022/02/25 09:39:17;;;;;;;;;;;7.90;99.90;;;;;;5096615;28;20369;-60
2022/02/25 09:41:42;;;;;;;;;;;8.00;99.90;;;;;;5095946;28;19994;-61
2022/02/25 09:44:12;;;;;;;;;;;8.10;99.90;;;;;;5096135;28;19916;-61
2022/02/25 09:46:37;;;;;;;;;;;8.20;99.90;;;;;;5096276;28;19951;-61
2022/02/25 09:49:03;;;;;;;;;;;8.30;99.90;;;;;;5096193;28;20355;-61
2022/02/25 09:51:28;;;;;;;;;;;8.40;99.90;;;;;;5095922;28;19947;-61
2022/02/25 09:53:54;;;;;;;;;;;8.60;99.90;;;;;;5096362;28;20266;-61
2022/02/25 09:56:22;;;;;;;;;;;9.00;99.90;;;;;;5095850;28;19916;-59
2022/02/25 09:58:47;;;;;;;;;;;9.00;99.90;;;;;;5095774;28;19916;-60
2022/02/25 10:01:13;;;;;;;;;;;8.90;99.90;;;;;;5095693;28;19923;-60
2022/02/25 10:03:39;;;;;;;;;;;8.70;99.90;;;;;;5095748;28;20377;-60
2022/02/25 10:06:06;;;;;;;;;;;8.50;99.90;;;;;;5094615;28;19924;-60
2022/02/25 10:08:31;;;;;;;;;;;8.20;99.90;;;;;;5095869;28;20024;-60
2022/02/25 10:10:59;;;;;;;;;;;7.90;99.90;;;;;;5094296;28;19959;-60
2022/02/25 10:13:25;;;;;;;;;;;7.90;99.90;;;;;;5094081;28;19955;-60
2022/02/25 10:15:54;;;;;;;;;;;7.60;99.90;;;;;;5095876;28;19959;-59
2022/02/25 10:18:24;;;;;;;;;;;7.40;99.90;;;;;;5095580;28;19960;-60
2022/02/25 10:20:49;;;;;;;;;;;7.30;99.90;;;;;;5095385;28;19923;-60
2022/02/25 10:23:23;;;;;;;;;;;7.30;99.90;;;;;;5094114;28;19916;-60
2022/02/25 10:25:48;;;;;;;;;;;7.50;99.90;;;;;;5095224;28;19958;-59
2022/02/25 10:28:14;;;;;;;;;;;7.80;99.90;;;;;;5095116;28;20368;-60
2022/02/25 10:30:40;;;;;;;;;;;8.00;99.90;;;;;;5077351;28;19962;-59
2022/02/25 10:33:06;;;;;;;;;;;8.30;99.90;;;;;;5094869;28;20273;-60
2022/02/25 10:35:35;;;;;;;;;;;8.60;99.90;;;;;;5093646;28;20062;-60
2022/02/25 10:38:01;;;;;;;;;;;8.80;99.90;;;;;;5094713;28;19923;-60
2022/02/25 10:40:28;;;;;;;;;;;8.90;99.90;;;;;;5094952;28;19916;-60
2022/02/25 10:42:53;;;;;;;;;;;8.70;99.90;;;;;;5094776;28;20290;-60
2022/02/25 10:45:33;;;;;;;;;;;8.30;99.90;;;;;;5093365;28;19923;-60
2022/02/25 10:47:59;;;;;;;;;;;7.80;99.90;;;;;;5094810;28;19920;-60
2022/02/25 10:50:28;;;;;;;;;;;7.60;99.90;;;;;;5094926;28;19971;-60
2022/02/25 10:52:55;;;;;;;;;;;7.30;99.90;;;;;;5094810;28;19915;-59
2022/02/25 10:55:21;;;;;;;;;;;7.30;99.90;;;;;;5093023;28;20263;-59
2022/02/25 10:57:48;;;;;;;;;;;7.10;99.90;;;;;;5094558;28;19916;-59
2022/02/25 11:00:15;;;;;;;;;;;7.00;99.90;;;;;;5094803;28;19916;-59
2022/02/25 11:02:41;;;;;;;;;;;7.00;99.90;;;;;;5094685;28;20003;-59
2022/02/25 11:05:19;;;;;;;;;;;7.10;99.90;;;;;;5094671;28;19926;-59
2022/02/25 11:07:46;;;;;;;;;;;7.20;99.90;;;;;;5094557;28;19920;-59
2022/02/25 11:10:12;;;;;;;;;;;7.50;99.90;;;;;;5094465;28;20418;-59
2022/02/25 11:12:39;;;;;;;;;;;7.90;99.90;;;;;;5094137;28;19923;-60
2022/02/25 11:15:07;;;;;;;;;;;8.20;99.90;;;;;;5093336;28;19916;-60
2022/02/25 11:17:35;;;;;;;;;;;8.50;99.90;;;;;;5094668;28;19916;-60
2022/02/25 11:20:02;;;;;;;;;;;8.60;99.90;;;;;;5094313;28;20049;-59
2022/02/25 11:22:28;;;;;;;;;;;8.90;99.90;;;;;;5094320;28;20371;-60
2022/02/25 11:24:54;;;;;;;;;;;9.10;99.90;;;;;;5092873;28;19916;-60
2022/02/25 11:27:19;;;;;;;;;;;9.40;99.90;;;;;;5092794;28;19916;-60
2022/02/25 11:29:56;;;;;;;;;;;9.40;99.90;;;;;;5091456;28;19939;-60
2022/02/25 11:32:25;;;;;;;;;;;9.10;99.90;;;;;;5091669;28;20015;-60
2022/02/25 11:34:50;;;;;;;;;;;9.00;99.90;;;;;;5092205;28;19966;-59
2022/02/25 11:37:36;;;;;;;;;;;9.00;99.90;;;;;;5092358;28;19982;-60
2022/02/25 11:40:04;;;;;;;;;;;9.20;99.90;;;;;;5092503;28;19916;-60
2022/02/25 11:42:29;;;;;;;;;;;9.30;99.90;;;;;;5092707;28;19916;-59
2022/02/25 11:45:18;;;;;;;;;;;9.60;99.90;;;;;;5092611;28;19923;-60
2022/02/25 11:47:48;;;;;;;;;;;9.80;99.90;;;;;;5092394;28;20053;-59
2022/02/25 11:50:34;;;;;;;;;;;9.70;99.90;;;;;;5092310;28;19920;-59
2022/02/25 11:53:16;;;;;;;;;;;9.50;99.90;;;;;;5092315;28;20365;-59
2022/02/25 11:55:43;;;;;;;;;;;9.30;99.90;;;;;;5092424;28;19916;-59
2022/02/25 11:58:27;;;;;;;;;;;9.10;99.90;;;;;;5092487;28;20007;-59
2022/02/25 12:01:10;;;;;;;;;;;9.10;99.90;;;;;;5092874;28;19919;-59
2022/02/25 12:03:55;;;;;;;;;;;8.90;99.90;;;;;;5092473;28;20002;-50
2022/02/25 12:06:28;;;;;;;;;;;8.90;99.90;;;;;;5092318;28;19977;-52
2022/02/25 12:08:57;;;;;;;;;;;8.90;99.90;;;;;;5092271;28;20366;-48
2022/02/25 12:11:31;;;;;;;;;;;9.30;99.90;;;;;;5091279;28;20344;-47
2022/02/25 12:13:56;;;;;;;;;;;9.20;99.90;;;;;;5092484;28;19920;-51
2022/02/25 12:16:23;;;;;;;;;;;9.10;99.90;;;;;;5092332;28;19923;-49
2022/02/25 12:18:48;;;;;;;;;;;9.20;99.90;;;;;;5092562;28;20316;-49
2022/02/25 12:21:14;;;;;;;;;;;9.00;99.90;;;;;;5092206;28;19962;-51
2022/02/25 12:23:43;;;;;;;;;;;8.80;99.90;;;;;;5092085;28;19922;-52
2022/02/25 12:26:10;;;;;;;;;;;8.80;99.90;;;;;;5092373;28;19963;-50
2022/02/25 12:28:38;;;;;;;;;;;9.10;99.90;;;;;;5090863;28;19926;-57
2022/02/25 12:31:12;;;;;;;;;;;9.20;99.90;;;;;;5092041;28;19998;-58
2022/02/25 12:33:44;;;;;;;;;;;9.60;99.90;;;;;;5090694;28;19969;-58
2022/02/25 12:36:12;;;;;;;;;;;9.80;99.90;;;;;;5091889;28;19927;-58
2022/02/25 12:38:41;;;;;;;;;;;9.90;99.90;;;;;;5092097;28;19923;-59
2022/02/25 12:41:15;;;;;;;;;;;9.70;99.90;;;;;;5091922;28;19920;-59
2022/02/25 12:43:46;;;;;;;;;;;9.70;99.90;;;;;;5092067;28;20007;-59
2022/02/25 12:46:12;;;;;;;;;;;9.70;99.90;;;;;;5092011;28;19916;-59
2022/02/25 12:48:37;;;;;;;;;;;9.40;99.90;;;;;;5095817;28;19973;-59
2022/02/25 12:51:03;;;;;;;;;;;9.10;99.90;;;;;;5096175;28;19969;-59
2022/02/25 12:53:29;;;;;;;;;;;9.10;99.90;;;;;;5095997;28;19916;-51
2022/02/25 12:55:55;;;;;;;;;;;9.30;99.90;;;;;;5096032;28;20287;-51
2022/02/25 12:58:33;;;;;;;;;;;9.00;99.90;;;;;;5095877;28;19923;-51
2022/02/25 13:00:59;;;;;;;;;;;8.70;99.90;;;;;;5095813;28;20285;-59
2022/02/25 13:03:24;;;;;;;;;;;8.90;99.90;;;;;;5095878;28;19916;-51
2022/02/25 13:05:53;;;;;;;;;;;9.10;99.90;;;;;;5095807;28;19973;-51
2022/02/25 13:08:19;;;;;;;;;;;9.10;99.90;;;;;;5095545;28;19927;-51
2022/02/25 13:10:55;;;;;;;;;;;9.20;99.90;;;;;;5095678;28;19916;-51
2022/02/25 13:13:20;;;;;;;;;;;9.40;99.90;;;;;;5095700;28;19959;-49
2022/02/25 13:15:46;;;;;;;;;;;9.50;99.90;;;;;;5095976;28;20394;-49
2022/02/25 13:18:20;;;;;;;;;;;9.70;99.90;;;;;;5095690;28;19966;-50
2022/02/25 13:21:15;;;;;;;;;;;9.80;99.90;;;;;;5095486;28;20366;-52
2022/02/25 13:23:50;;;;;;;;;;;9.70;99.90;;;;;;5052975;28;20264;-52
2022/02/25 13:26:21;;;;;;;;;;;9.70;99.90;;;;;;5053119;28;20290;-50
2022/02/25 13:28:47;;;;;;;;;;;9.80;99.90;;;;;;5052817;28;19955;-56
2022/02/25 13:31:21;;;;;;;;;;;9.70;99.90;;;;;;5052737;28;20007;-49
2022/02/25 13:33:47;;;;;;;;;;;9.90;99.90;;;;;;5052702;28;19952;-51
2022/02/25 13:36:13;;;;;;;;;;;9.90;99.90;;;;;;5052631;28;20457;-48
2022/02/25 13:38:40;;;;;;;;;;;9.90;99.90;;;;;;5035884;28;19917;-49
2022/02/25 13:41:07;;;;;;;;;;;9.90;99.90;;;;;;5052627;28;20366;-51
2022/02/25 13:43:32;;;;;;;;;;;9.80;99.90;;;;;;5052498;28;19920;-50
2022/02/25 13:46:18;;;;;;;;;;;9.60;99.90;;;;;;5036157;28;19946;-50
2022/02/25 13:54:45;;;;;;;;;;;10.30;99.90;;;;;;5051630;28;19916;-50
2022/02/25 13:57:15;;;;;;;;;;;10.10;99.90;;;;;;5051864;28;19960;-51
2022/02/25 13:59:48;;;;;;;;;;;9.80;99.90;;;;;;5066869;28;20025;-50
2022/02/25 14:02:15;;;;;;;;;;;9.30;99.90;;;;;;5094456;28;19955;-51
2022/02/25 14:04:41;;;;;;;;;;;9.00;99.90;;;;;;5094583;28;20006;-50
2022/02/25 14:07:08;;;;;;;;;;;8.70;99.90;;;;;;5094897;28;20007;-48
2022/02/25 14:09:34;;;;;;;;;;;8.70;99.90;;;;;;5094355;28;20280;-50
2022/02/25 14:12:04;;;;;;;;;;;8.90;99.90;;;;;;5094754;28;20324;-50
2022/02/25 14:14:32;;;;;;;;;;;9.20;99.90;;;;;;5094421;28;19922;-45
2022/02/25 14:16:57;;;;;;;;;;;9.70;99.90;;;;;;5094521;28;20354;-51
2022/02/25 14:19:23;;;;;;;;;;;9.50;99.90;;;;;;5094341;28;19955;-52
2022/02/25 14:21:48;;;;;;;;;;;9.40;99.90;;;;;;5094222;28;19939;-52
2022/02/25 14:24:28;;;;;;;;;;;9.30;99.90;;;;;;5094318;28;19959;-48
2022/02/25 14:27:07;;;;;;;;;;;9.10;99.90;;;;;;5094111;28;20354;-51
2022/02/25 14:29:32;;;;;;;;;;;9.00;99.90;;;;;;5094408;28;19920;-50
2022/02/25 14:32:08;;;;;;;;;;;8.90;99.90;;;;;;5094243;28;19923;-49
2022/02/25 14:34:34;;;;;;;;;;;8.80;99.90;;;;;;5093869;28;20373;-51
2022/02/25 14:37:00;;;;;;;;;;;8.80;99.90;;;;;;5094063;28;19931;-50
2022/02/25 14:39:25;;;;;;;;;;;9.00;99.90;;;;;;5094370;28;19924;-49
2022/02/25 14:41:51;;;;;;;;;;;9.00;99.90;;;;;;5094085;28;19999;-49